createdAt,value
2022-10-23T00:03:58.084Z,10.40
2022-10-23T00:09:01.551Z,10.30
2022-10-23T00:14:08.545Z,10.30
2022-10-23T00:19:12.276Z,10.30
2022-10-23T00:24:15.674Z,10.40
2022-10-23T00:29:20.364Z,10.30
2022-10-23T00:34:23.626Z,10.30
2022-10-23T00:39:26.971Z,10.30
2022-10-23T00:45:07.912Z,10.40
2022-10-23T00:50:12.789Z,10.30
2022-10-23T00:55:17.212Z,10.30
2022-10-23T01:00:24.806Z,10.20
2022-10-23T01:05:35.575Z,10.30
2022-10-23T01:10:43.941Z,10.40
2022-10-23T01:21:01.103Z,10.20
2022-10-23T01:26:16.847Z,10.30
2022-10-23T01:31:27.758Z,10.40
2022-10-23T01:36:34.104Z,10.40
2022-10-23T01:41:43.219Z,10.40
2022-10-23T01:46:51.204Z,10.40
2022-10-23T01:51:59.074Z,10.30
2022-10-23T01:57:04.503Z,10.40
2022-10-23T02:02:12.628Z,10.40
2022-10-23T02:07:19.382Z,10.30
2022-10-23T02:12:30.815Z,10.40
2022-10-23T02:17:48.117Z,10.30
2022-10-23T02:23:01.484Z,10.40
2022-10-23T02:28:09.217Z,10.40
2022-10-23T02:33:20.844Z,10.40
2022-10-23T02:38:36.654Z,10.30
2022-10-23T02:43:47.706Z,13.30
2022-10-23T02:49:00.497Z,10.30
2022-10-23T02:54:13.189Z,10.30
2022-10-23T02:59:24.698Z,10.30
2022-10-23T03:04:31.959Z,10.20
2022-10-23T03:09:35.244Z,10.20
2022-10-23T03:14:38.573Z,10.20
2022-10-23T03:19:43.623Z,10.10
2022-10-23T03:24:47.114Z,10.10
2022-10-23T03:29:50.525Z,10.10
2022-10-23T03:34:56.538Z,10.20
2022-10-23T03:40:00.404Z,10.20
2022-10-23T03:45:07.108Z,10.10
2022-10-23T03:50:13.629Z,10.10
2022-10-23T03:55:17.141Z,10.10
2022-10-23T04:05:25.648Z,10.00
2022-10-23T04:10:32.097Z,9.90
2022-10-23T04:15:35.563Z,9.90
2022-10-23T04:20:40.473Z,9.80
2022-10-23T04:30:49.254Z,9.60
2022-10-23T04:35:54.165Z,9.40
2022-10-23T04:40:57.476Z,9.40
2022-10-23T04:46:00.987Z,9.30
2022-10-23T04:51:07.147Z,9.80
2022-10-23T04:56:28.921Z,9.30
2022-10-23T05:01:38.845Z,9.20
2022-10-23T05:06:45.490Z,9.30
2022-10-23T05:11:56.829Z,9.20
2022-10-23T05:17:03.954Z,9.00
2022-10-23T05:22:12.218Z,9.10
2022-10-23T05:27:28.020Z,9.20
2022-10-23T05:32:34.537Z,9.40
2022-10-23T05:37:45.086Z,9.50
2022-10-23T05:42:56.495Z,9.50
2022-10-23T05:48:22.451Z,9.60
2022-10-23T05:53:51.768Z,9.80
2022-10-23T05:59:07.792Z,9.90
2022-10-23T06:04:25.640Z,10.00
2022-10-23T06:09:56.830Z,10.10
2022-10-23T06:15:01.189Z,10.10
2022-10-23T06:20:26.595Z,10.10
2022-10-23T06:25:42.325Z,10.10
2022-10-23T06:30:45.897Z,10.10
2022-10-23T06:35:49.301Z,10.10
2022-10-23T06:40:56.046Z,10.10
2022-10-23T06:46:07.811Z,10.10
2022-10-23T06:51:40.166Z,10.00
2022-10-23T06:56:49.538Z,9.80
2022-10-23T07:01:57.776Z,9.90
2022-10-23T07:07:01.497Z,9.90
2022-10-23T07:12:15.486Z,9.90
2022-10-23T07:17:25.701Z,9.80
2022-10-23T07:22:29.278Z,9.90
2022-10-23T07:27:45.263Z,10.10
2022-10-23T07:32:48.912Z,10.10
2022-10-23T07:43:26.194Z,10.20
2022-10-23T07:48:29.793Z,10.30
2022-10-23T07:53:36.756Z,10.50
2022-10-23T07:58:48.003Z,10.50
2022-10-23T08:03:53.519Z,10.50
2022-10-23T08:14:09.708Z,10.70
2022-10-23T08:19:15.354Z,10.90
2022-10-23T08:24:20.368Z,10.90
2022-10-23T08:29:26.762Z,10.90
2022-10-23T08:34:31.402Z,11.00
2022-10-23T08:39:38.477Z,11.00
2022-10-23T08:44:59.369Z,11.20
2022-10-23T08:50:12.096Z,11.30
2022-10-23T08:55:20.182Z,11.40
2022-10-23T09:00:24.930Z,11.50
2022-10-23T09:05:32.516Z,11.50
2022-10-23T09:10:50.626Z,11.90
2022-10-23T09:16:05.166Z,12.00
2022-10-23T09:21:11.358Z,11.90
2022-10-23T09:26:16.966Z,11.90
2022-10-23T09:31:21.646Z,12.00
2022-10-23T09:36:26.084Z,12.00
2022-10-23T09:41:33.037Z,12.20
2022-10-23T09:46:42.006Z,12.30
2022-10-23T09:51:53.677Z,12.30
2022-10-23T09:57:01.232Z,12.50
2022-10-23T10:02:20.670Z,12.60
2022-10-23T10:07:57.319Z,12.70
2022-10-23T10:13:05.034Z,13.10
2022-10-23T10:18:16.096Z,13.40
2022-10-23T10:23:28.419Z,14.00
2022-10-23T10:29:04.026Z,14.40
2022-10-23T10:34:18.179Z,14.40
2022-10-23T10:39:35.608Z,14.60
2022-10-23T10:44:49.895Z,15.00
2022-10-23T10:50:07.614Z,15.00
2022-10-23T10:55:34.866Z,15.20
2022-10-23T11:00:38.334Z,15.20
2022-10-23T11:05:44.764Z,15.00
2022-10-23T11:10:51.654Z,13.50
2022-10-23T11:16:00.193Z,15.40
2022-10-23T11:21:21.856Z,15.90
2022-10-23T11:26:42.817Z,16.00
2022-10-23T11:31:55.684Z,20.90
2022-10-23T11:37:02.524Z,17.00
2022-10-23T11:42:15.918Z,18.20
2022-10-23T11:47:37.997Z,17.90
2022-10-23T11:53:12.656Z,18.90
2022-10-23T11:58:21.583Z,20.00
2022-10-23T12:03:27.832Z,19.40
2022-10-23T12:08:33.975Z,19.50
2022-10-23T12:13:55.732Z,19.40
2022-10-23T12:18:59.143Z,19.50
2022-10-23T12:24:11.564Z,19.80
2022-10-23T12:29:26.067Z,20.00
2022-10-23T12:34:43.234Z,20.40
2022-10-23T12:39:53.844Z,19.70
2022-10-23T12:45:01.310Z,19.10
2022-10-23T12:50:05.106Z,18.90
2022-10-23T12:55:16.865Z,18.50
2022-10-23T13:00:23.248Z,18.40
2022-10-23T13:05:27.608Z,18.10
2022-10-23T13:10:33.433Z,17.90
2022-10-23T13:15:42.730Z,18.10
2022-10-23T13:20:58.622Z,18.00
2022-10-23T13:26:05.395Z,18.40
2022-10-23T13:31:26.953Z,18.60
2022-10-23T13:36:32.327Z,18.20
2022-10-23T13:41:44.828Z,18.10
2022-10-23T13:46:49.144Z,18.00
2022-10-23T13:51:54.198Z,17.80
2022-10-23T13:56:59.105Z,17.60
2022-10-23T14:02:04.933Z,17.50
2022-10-23T14:07:08.437Z,17.30
2022-10-23T14:12:13.756Z,13.10
2022-10-23T14:17:17.157Z,17.60
2022-10-23T14:22:21.780Z,17.70
2022-10-23T14:27:28.899Z,15.30
2022-10-23T14:32:33.715Z,17.40
2022-10-23T14:37:37.251Z,17.20
2022-10-23T14:42:42.119Z,16.90
2022-10-23T14:47:46.560Z,16.90
2022-10-23T14:52:50.003Z,16.80
2022-10-23T14:57:57.566Z,16.70
2022-10-23T15:03:01.261Z,16.80
2022-10-23T15:08:04.636Z,16.60
2022-10-23T15:13:09.350Z,16.50
2022-10-23T15:18:12.638Z,16.50
2022-10-23T15:23:15.933Z,16.40
2022-10-23T15:28:20.976Z,16.40
2022-10-23T15:33:24.998Z,16.30
2022-10-23T15:38:28.310Z,16.30
2022-10-23T15:43:32.996Z,16.20
2022-10-23T15:48:36.397Z,16.00
2022-10-23T15:53:39.836Z,15.90
2022-10-23T15:58:44.776Z,15.70
2022-10-23T16:03:49.966Z,15.60
2022-10-23T16:13:59.845Z,15.20
2022-10-23T16:19:04.816Z,15.00
2022-10-23T16:24:09.737Z,14.80
2022-10-23T16:29:14.545Z,14.60
2022-10-23T16:34:17.885Z,14.60
2022-10-23T16:39:22.106Z,14.40
2022-10-23T16:44:45.167Z,14.40
2022-10-23T16:49:48.494Z,14.20
2022-10-23T16:54:51.802Z,14.20
2022-10-23T16:59:56.586Z,14.30
2022-10-23T17:05:00.077Z,14.30
2022-10-23T17:10:03.386Z,13.60
2022-10-23T17:15:10.073Z,14.30
2022-10-23T17:20:13.860Z,14.30
2022-10-23T17:25:17.399Z,14.10
2022-10-23T17:30:22.301Z,14.10
2022-10-23T17:35:25.614Z,14.10
2022-10-23T17:40:30.968Z,14.00
2022-10-23T17:45:37.190Z,13.90
2022-10-23T17:50:40.887Z,13.80
2022-10-23T17:55:44.195Z,13.80
2022-10-23T18:00:49.054Z,13.70
2022-10-23T18:05:52.507Z,13.50
2022-10-23T18:10:55.928Z,13.50
2022-10-23T18:16:03.714Z,13.30
2022-10-23T18:21:08.045Z,13.30
2022-10-23T18:26:17.979Z,13.20
2022-10-23T18:31:25.080Z,13.40
2022-10-23T18:36:30.437Z,13.30
2022-10-23T18:41:34.842Z,13.30
2022-10-23T18:46:39.691Z,13.30
2022-10-23T18:51:43.355Z,13.30
2022-10-23T18:56:47.144Z,13.40
2022-10-23T19:01:52.223Z,13.40
2022-10-23T19:06:55.682Z,12.10
2022-10-23T19:12:00.628Z,13.40
2022-10-23T19:17:09.431Z,13.70
2022-10-23T19:22:15.230Z,13.30
2022-10-23T19:27:19.423Z,13.50
2022-10-23T19:32:24.147Z,13.50
2022-10-23T19:37:27.525Z,13.30
2022-10-23T19:42:30.911Z,13.20
2022-10-23T19:47:35.655Z,13.30
2022-10-23T19:52:39.351Z,13.30
2022-10-23T19:57:43.538Z,13.20
2022-10-23T20:02:50.210Z,13.10
2022-10-23T20:07:56.765Z,13.00
2022-10-23T20:13:15.063Z,15.70
2022-10-23T20:18:24.360Z,12.90
2022-10-23T20:23:27.658Z,12.80
2022-10-23T20:28:31.054Z,12.70
2022-10-23T20:33:36.011Z,9.10
2022-10-23T20:38:39.348Z,12.90
2022-10-23T20:43:42.833Z,12.80
2022-10-23T20:48:47.544Z,13.10
2022-10-23T20:53:55.180Z,13.00
2022-10-23T20:58:58.858Z,13.30
2022-10-23T21:04:04.847Z,13.20
2022-10-23T21:09:08.674Z,13.10
2022-10-23T21:14:12.023Z,13.10
2022-10-23T21:19:17.654Z,13.00
2022-10-23T21:24:21.050Z,13.30
2022-10-23T21:29:24.327Z,13.30
2022-10-23T21:34:30.035Z,13.30
2022-10-23T21:39:33.443Z,12.90
2022-10-23T21:44:37.061Z,13.10
2022-10-23T21:49:42.076Z,12.90
2022-10-23T21:54:45.386Z,12.90
2022-10-23T21:59:50.052Z,13.00
2022-10-23T22:04:54.810Z,12.80
2022-10-23T22:09:58.133Z,13.00
2022-10-23T22:15:01.421Z,13.00
2022-10-23T22:20:07.126Z,13.40
2022-10-23T22:25:10.876Z,13.10
2022-10-23T22:30:14.473Z,13.20
2022-10-23T22:35:19.335Z,13.30
2022-10-23T22:40:22.699Z,13.40
2022-10-23T22:45:26.020Z,13.50
2022-10-23T22:50:30.692Z,13.10
2022-10-23T22:55:33.969Z,13.00
2022-10-23T23:00:41.407Z,13.00
2022-10-23T23:05:49.131Z,13.10
2022-10-23T23:10:56.314Z,13.00
2022-10-23T23:15:59.600Z,13.00
2022-10-23T23:21:04.739Z,13.00
2022-10-23T23:26:08.745Z,13.10
2022-10-23T23:31:17.563Z,13.00
2022-10-23T23:36:25.104Z,12.90
2022-10-23T23:41:29.813Z,13.00
2022-10-23T23:46:33.062Z,12.90
2022-10-23T23:51:38.008Z,13.00
2022-10-23T23:56:41.398Z,12.90
